createdAt,value
2019-06-27T00:00:27.780Z,96637.77
2019-06-27T00:03:11.691Z,96632.37
2019-06-27T00:05:55.742Z,96641.05
2019-06-27T00:08:39.669Z,96631.45
2019-06-27T00:11:24.907Z,96629.28
2019-06-27T00:14:09.124Z,96640.56
2019-06-27T00:16:53.394Z,96620.92
2019-06-27T00:19:38.690Z,96637.33
2019-06-27T00:22:23.257Z,96632.69
2019-06-27T00:25:07.439Z,96623.23
2019-06-27T00:27:51.662Z,96604.67
2019-06-27T00:30:35.436Z,96626.48
2019-06-27T00:33:19.748Z,96612.73
2019-06-27T00:36:04.182Z,96624.17
2019-06-27T00:38:48.802Z,96625.23
2019-06-27T00:41:32.790Z,96626.95
2019-06-27T00:44:16.991Z,96622.63
2019-06-27T00:47:01.295Z,96606.66
2019-06-27T00:49:46.748Z,96622.58
2019-06-27T00:52:31.083Z,96629.98
2019-06-27T00:55:15.200Z,96624.42
2019-06-27T00:57:59.515Z,96625.48
2019-06-27T01:00:44.849Z,96605.66
2019-06-27T01:03:29.193Z,96620.35
2019-06-27T01:06:13.660Z,96624.02
2019-06-27T01:08:58.115Z,96625.41
2019-06-27T01:11:41.798Z,96630.70
2019-06-27T01:14:26.330Z,96623.38
2019-06-27T01:17:10.024Z,96625.92
2019-06-27T01:19:53.900Z,96626.59
2019-06-27T01:22:38.088Z,96631.89
2019-06-27T01:25:21.799Z,96627.91
2019-06-27T01:28:05.549Z,96640.13
2019-06-27T01:30:49.612Z,96645.16
2019-06-27T01:33:35.139Z,96643.68
2019-06-27T01:36:19.341Z,96644.95
2019-06-27T01:39:04.125Z,96655.14
2019-06-27T01:41:47.941Z,96655.67
2019-06-27T01:44:51.317Z,96649.94
2019-06-27T01:47:35.695Z,96655.84
2019-06-27T01:50:20.032Z,96656.96
2019-06-27T01:53:04.406Z,96661.69
2019-06-27T01:55:48.505Z,96659.56
2019-06-27T01:58:20.986Z,96656.98
2019-06-27T02:01:05.383Z,96654.41
2019-06-27T02:03:49.751Z,96655.29
2019-06-27T02:06:33.393Z,96657.75
2019-06-27T02:09:18.785Z,96650.91
2019-06-27T02:12:04.651Z,96655.69
2019-06-27T02:14:48.921Z,96646.57
2019-06-27T02:17:33.081Z,96654.31
2019-06-27T02:20:17.581Z,96629.89
2019-06-27T02:23:01.649Z,96643.68
2019-06-27T02:25:46.165Z,96649.90
2019-06-27T02:28:18.596Z,96653.41
2019-06-27T02:31:14.777Z,96643.65
2019-06-27T02:33:59.475Z,96656.40
2019-06-27T02:36:43.873Z,96643.58
2019-06-27T02:39:27.621Z,96646.36
2019-06-27T02:42:11.781Z,96622.67
2019-06-27T02:44:56.221Z,96642.38
2019-06-27T02:47:39.970Z,96648.55
2019-06-27T02:50:24.282Z,96649.47
2019-06-27T02:53:07.857Z,96651.03
2019-06-27T02:55:52.448Z,96642.38
2019-06-27T02:58:30.786Z,96638.63
2019-06-27T03:01:23.375Z,96647.25
2019-06-27T03:04:07.847Z,96638.76
2019-06-27T03:06:52.345Z,96641.20
2019-06-27T03:09:36.631Z,96637.52
2019-06-27T03:12:22.652Z,96644.97
2019-06-27T03:15:07.205Z,96641.22
2019-06-27T03:17:51.924Z,96650.53
2019-06-27T03:20:35.867Z,96634.86
2019-06-27T03:23:20.124Z,96665.67
2019-06-27T03:26:04.410Z,96665.05
2019-06-27T03:28:52.997Z,96657.86
2019-06-27T03:31:33.803Z,96675.05
2019-06-27T03:34:18.367Z,96661.93
2019-06-27T03:37:02.267Z,96682.57
2019-06-27T03:39:47.374Z,96691.36
2019-06-27T03:42:31.649Z,96686.80
2019-06-27T03:45:16.381Z,96685.27
2019-06-27T03:48:01.123Z,96681.86
2019-06-27T03:50:46.447Z,96664.70
2019-06-27T03:53:18.794Z,96694.00
2019-06-27T03:56:03.065Z,96691.59
2019-06-27T03:58:47.626Z,96676.53
2019-06-27T04:01:32.182Z,96674.53
2019-06-27T04:04:16.567Z,96643.62
2019-06-27T04:07:01.870Z,96672.69
2019-06-27T04:09:45.751Z,96662.10
2019-06-27T04:12:29.374Z,96667.80
2019-06-27T04:15:13.842Z,96663.14
2019-06-27T04:17:57.699Z,96671.26
2019-06-27T04:20:41.433Z,96646.70
2019-06-27T04:23:26.185Z,96664.53
2019-06-27T04:26:10.619Z,96675.59
2019-06-27T04:28:55.138Z,96675.89
2019-06-27T04:31:39.639Z,96670.47
2019-06-27T04:34:24.178Z,96675.86
2019-06-27T04:37:07.692Z,96675.55
2019-06-27T04:39:50.985Z,96683.58
2019-06-27T04:42:35.259Z,96691.52
2019-06-27T04:45:20.498Z,96674.48
2019-06-27T04:48:04.876Z,96689.86
2019-06-27T04:50:48.192Z,96687.59
2019-06-27T04:53:20.282Z,96688.68
2019-06-27T04:56:03.651Z,96687.88
2019-06-27T04:58:47.796Z,96689.92
2019-06-27T05:01:31.205Z,96686.86
2019-06-27T05:04:15.299Z,96696.54
2019-06-27T05:06:58.566Z,96689.87
2019-06-27T05:09:42.123Z,96696.76
2019-06-27T05:12:25.693Z,96691.45
2019-06-27T05:15:09.349Z,96677.59
2019-06-27T05:17:54.919Z,96696.27
2019-06-27T05:20:38.982Z,96678.47
2019-06-27T05:23:30.067Z,96673.48
2019-06-27T05:26:13.957Z,96676.67
2019-06-27T05:28:57.451Z,96689.02
2019-06-27T05:31:42.737Z,96686.39
2019-06-27T05:34:26.599Z,96678.67
2019-06-27T05:37:17.693Z,96662.77
2019-06-27T05:40:01.652Z,96669.67
2019-06-27T05:42:46.218Z,96696.25
2019-06-27T05:45:30.047Z,96700.17
2019-06-27T05:48:13.937Z,96703.09
2019-06-27T05:50:57.412Z,96692.97
2019-06-27T05:53:40.841Z,96683.67
2019-06-27T05:56:24.601Z,96690.23
2019-06-27T05:59:07.923Z,96683.34
2019-06-27T06:01:52.153Z,96669.76
2019-06-27T06:04:36.071Z,96688.10
2019-06-27T06:07:20.238Z,96668.88
2019-06-27T06:10:04.128Z,96693.28
2019-06-27T06:12:47.543Z,96689.68
2019-06-27T06:15:31.336Z,96699.95
2019-06-27T06:18:16.476Z,96691.73
2019-06-27T06:21:00.084Z,96691.48
2019-06-27T06:23:44.120Z,96697.91
2019-06-27T06:26:29.564Z,96698.13
2019-06-27T06:29:13.017Z,96704.89
2019-06-27T06:31:56.449Z,96699.30
2019-06-27T06:34:40.754Z,96703.95
2019-06-27T06:37:24.325Z,96707.55
2019-06-27T06:40:08.026Z,96712.05
2019-06-27T06:42:56.117Z,96710.81
2019-06-27T06:45:37.303Z,96712.97
2019-06-27T06:48:20.696Z,96707.61
2019-06-27T06:51:04.980Z,96706.72
2019-06-27T06:53:48.387Z,96699.80
2019-06-27T06:56:31.951Z,96692.02
2019-06-27T06:59:16.100Z,96695.81
2019-06-27T07:01:59.621Z,96691.30
2019-06-27T07:04:43.473Z,96689.76
2019-06-27T07:07:27.457Z,96689.13
2019-06-27T07:10:10.792Z,96695.05
2019-06-27T07:12:55.003Z,96700.58
2019-06-27T07:15:39.037Z,96694.84
2019-06-27T07:18:22.402Z,96695.63
2019-06-27T07:21:05.863Z,96700.20
2019-06-27T07:23:49.715Z,96700.34
2019-06-27T07:26:33.749Z,96704.81
2019-06-27T07:29:17.363Z,96706.22
2019-06-27T07:32:00.638Z,96692.63
2019-06-27T07:34:46.503Z,96697.86
2019-06-27T07:37:30.695Z,96697.19
2019-06-27T07:40:14.077Z,96684.23
2019-06-27T07:42:57.573Z,96691.14
2019-06-27T07:45:41.398Z,96682.41
2019-06-27T07:48:24.940Z,96688.70
2019-06-27T07:51:09.288Z,96676.04
2019-06-27T07:53:52.906Z,96665.31
2019-06-27T07:56:36.378Z,96684.66
2019-06-27T07:59:20.219Z,96683.03
2019-06-27T08:02:04.427Z,96691.75
2019-06-27T08:04:48.230Z,96684.81
2019-06-27T08:07:31.477Z,96680.59
2019-06-27T08:10:14.998Z,96691.48
2019-06-27T08:12:58.346Z,96696.86
2019-06-27T08:15:41.942Z,96679.05
2019-06-27T08:18:28.406Z,96689.38
2019-06-27T08:21:12.129Z,96669.02
2019-06-27T08:23:56.064Z,96685.34
2019-06-27T08:26:41.311Z,96693.52
2019-06-27T08:29:24.796Z,96685.31
2019-06-27T08:32:08.557Z,96686.05
2019-06-27T08:34:52.779Z,96685.20
2019-06-27T08:37:36.889Z,96683.73
2019-06-27T08:40:20.230Z,96689.94
2019-06-27T08:43:04.142Z,96680.11
2019-06-27T08:45:49.122Z,96672.86
2019-06-27T08:48:32.450Z,96668.03
2019-06-27T08:51:15.918Z,96677.60
2019-06-27T08:53:59.446Z,96664.11
2019-06-27T08:56:42.952Z,96687.19
2019-06-27T08:59:30.837Z,96683.39
2019-06-27T09:02:14.194Z,96677.34
2019-06-27T09:04:57.906Z,96682.00
2019-06-27T09:07:41.284Z,96678.87
2019-06-27T09:10:25.176Z,96677.79
2019-06-27T09:13:10.301Z,96679.94
2019-06-27T09:15:53.823Z,96654.09
2019-06-27T09:18:37.612Z,96674.95
2019-06-27T09:21:21.627Z,96674.15
2019-06-27T09:24:05.469Z,96677.53
2019-06-27T09:26:50.566Z,96664.11
2019-06-27T09:29:34.389Z,96648.67
2019-06-27T09:32:25.343Z,96665.11
2019-06-27T09:35:03.752Z,96668.96
2019-06-27T09:37:47.474Z,96673.85
2019-06-27T09:40:31.033Z,96664.98
2019-06-27T09:43:14.413Z,96670.87
2019-06-27T09:46:01.828Z,96671.25
2019-06-27T09:48:45.716Z,96672.78
2019-06-27T09:51:29.168Z,96669.87
2019-06-27T09:54:13.058Z,96662.02
2019-06-27T09:56:56.450Z,96665.84
2019-06-27T09:59:40.585Z,96670.92
2019-06-27T10:02:23.907Z,96663.30
2019-06-27T10:05:08.006Z,96668.58
2019-06-27T10:07:52.837Z,96666.11
2019-06-27T10:10:38.946Z,96664.11
2019-06-27T10:13:22.411Z,96646.56
2019-06-27T10:16:05.842Z,96658.05
2019-06-27T10:18:49.804Z,96656.00
2019-06-27T10:21:33.430Z,96659.39
2019-06-27T10:24:19.031Z,96649.97
2019-06-27T10:27:02.408Z,96643.08
2019-06-27T10:29:46.561Z,96659.19
2019-06-27T10:32:31.554Z,96659.40
2019-06-27T10:35:14.999Z,96653.27
2019-06-27T10:37:59.188Z,96651.16
2019-06-27T10:40:42.602Z,96630.80
2019-06-27T10:43:27.124Z,96649.47
2019-06-27T10:46:11.367Z,96643.52
2019-06-27T10:48:55.039Z,96622.81
2019-06-27T10:51:39.126Z,96650.44
2019-06-27T10:54:23.905Z,96614.17
2019-06-27T10:57:08.082Z,96643.17
2019-06-27T10:59:52.847Z,96647.07
2019-06-27T11:02:36.446Z,96639.22
2019-06-27T11:05:19.736Z,96638.02
2019-06-27T11:08:03.392Z,96637.03
2019-06-27T11:10:47.608Z,96622.73
2019-06-27T11:13:31.452Z,96631.30
2019-06-27T11:16:15.708Z,96622.72
2019-06-27T11:19:00.728Z,96616.37
2019-06-27T11:21:45.923Z,96624.26
2019-06-27T11:24:30.886Z,96621.75
2019-06-27T11:27:16.016Z,96615.84
2019-06-27T11:30:00.579Z,96618.09
2019-06-27T11:32:44.752Z,96610.17
2019-06-27T11:35:28.188Z,96610.45
2019-06-27T11:38:11.980Z,96591.08
2019-06-27T11:40:55.662Z,96604.44
2019-06-27T11:43:38.976Z,96596.06
2019-06-27T11:46:22.397Z,96594.61
2019-06-27T11:49:05.893Z,96568.95
2019-06-27T11:51:49.711Z,96594.78
2019-06-27T11:54:33.035Z,96592.23
2019-06-27T11:57:19.348Z,96591.52
2019-06-27T12:00:04.821Z,96591.62
2019-06-27T12:02:48.302Z,96583.94
2019-06-27T12:05:32.684Z,96588.43
2019-06-27T12:08:17.592Z,96593.75
2019-06-27T12:11:01.689Z,96589.06
2019-06-27T12:13:45.475Z,96586.30
2019-06-27T12:16:29.772Z,96576.20
2019-06-27T12:19:13.978Z,96576.93
2019-06-27T12:21:57.335Z,96574.27
2019-06-27T12:24:40.986Z,96581.20
2019-06-27T12:27:24.270Z,96572.48
2019-06-27T12:30:08.375Z,96571.22
2019-06-27T12:32:53.110Z,96572.15
2019-06-27T12:35:36.653Z,96551.22
2019-06-27T12:38:21.754Z,96560.27
2019-06-27T12:41:05.752Z,96564.72
2019-06-27T12:43:49.191Z,96561.25
2019-06-27T12:46:32.825Z,96555.86
2019-06-27T12:49:16.384Z,96550.36
2019-06-27T12:52:01.201Z,96546.67
2019-06-27T12:54:44.604Z,96556.02
2019-06-27T12:57:28.035Z,96546.20
2019-06-27T13:00:11.094Z,96548.42
2019-06-27T13:02:54.533Z,96544.67
2019-06-27T13:05:37.886Z,96550.64
2019-06-27T13:08:21.687Z,96547.25
2019-06-27T13:11:06.165Z,96546.21
2019-06-27T13:13:49.963Z,96541.77
2019-06-27T13:16:37.595Z,96534.15
2019-06-27T13:19:21.711Z,96535.95
2019-06-27T13:22:05.496Z,96531.35
2019-06-27T13:24:51.367Z,96536.09
2019-06-27T13:27:34.693Z,96527.65
2019-06-27T13:30:18.327Z,96536.48
2019-06-27T13:33:03.562Z,96535.61
2019-06-27T13:35:49.111Z,96524.23
2019-06-27T13:38:32.238Z,96519.00
2019-06-27T13:41:15.602Z,96514.95
2019-06-27T13:44:03.097Z,96515.82
2019-06-27T13:46:47.042Z,96520.95
2019-06-27T13:49:30.387Z,96515.69
2019-06-27T13:52:14.428Z,96513.55
2019-06-27T13:54:57.678Z,96510.56
2019-06-27T13:57:42.041Z,96507.95
2019-06-27T14:03:27.569Z,96507.55
2019-06-27T14:06:11.819Z,96500.09
2019-06-27T14:08:55.313Z,96501.00
2019-06-27T14:11:38.679Z,96506.99
2019-06-27T14:14:22.158Z,96494.27
2019-06-27T14:17:05.472Z,96501.35
2019-06-27T14:19:50.903Z,96493.86
2019-06-27T14:22:34.779Z,96490.45
2019-06-27T14:25:18.283Z,96495.80
2019-06-27T14:28:01.854Z,96490.05
2019-06-27T14:30:46.041Z,96487.02
2019-06-27T14:33:29.488Z,96493.06
2019-06-27T14:36:13.462Z,96481.77
2019-06-27T14:38:57.694Z,96481.77
2019-06-27T14:41:41.493Z,96463.09
2019-06-27T14:44:24.964Z,96475.06
2019-06-27T14:47:08.977Z,96453.69
2019-06-27T14:49:52.511Z,96467.52
2019-06-27T14:52:36.230Z,96465.12
2019-06-27T14:55:19.604Z,96460.64
2019-06-27T14:58:03.076Z,96454.56
2019-06-27T15:00:46.730Z,96455.59
2019-06-27T15:03:32.687Z,96450.88
2019-06-27T15:06:17.878Z,96448.23
2019-06-27T15:09:03.660Z,96442.26
2019-06-27T15:11:47.848Z,96447.34
2019-06-27T15:14:31.579Z,96446.11
2019-06-27T15:17:15.412Z,96444.57
2019-06-27T15:19:59.649Z,96443.79
2019-06-27T15:22:43.130Z,96443.47
2019-06-27T15:25:28.753Z,96442.66
2019-06-27T15:28:13.330Z,96440.56
2019-06-27T15:30:56.862Z,96436.69
2019-06-27T15:33:41.306Z,96438.03
2019-06-27T15:36:25.058Z,96441.19
2019-06-27T15:39:11.766Z,96425.07
2019-06-27T15:41:53.742Z,96432.89
2019-06-27T15:44:37.464Z,96432.44
2019-06-27T15:47:21.409Z,96435.39
2019-06-27T15:50:05.479Z,96430.56
2019-06-27T15:52:50.231Z,96419.11
2019-06-27T15:55:33.644Z,96414.09
2019-06-27T15:58:17.950Z,96421.98
2019-06-27T16:01:02.233Z,96391.67
2019-06-27T16:03:46.222Z,96414.02
2019-06-27T16:06:30.390Z,96411.85
2019-06-27T16:09:14.573Z,96409.23
2019-06-27T16:11:58.347Z,96399.84
2019-06-27T16:14:41.929Z,96403.65
2019-06-27T16:17:27.649Z,96405.31
2019-06-27T16:20:11.616Z,96399.70
2019-06-27T16:22:55.931Z,96395.84
2019-06-27T16:25:41.455Z,96393.80
2019-06-27T16:28:27.012Z,96397.56
2019-06-27T16:31:10.957Z,96400.08
2019-06-27T16:33:54.294Z,96377.76
2019-06-27T16:36:38.478Z,96399.03
2019-06-27T16:39:22.700Z,96392.91
2019-06-27T16:42:06.941Z,96381.80
2019-06-27T16:44:50.371Z,96394.08
2019-06-27T16:47:34.169Z,96392.45
2019-06-27T16:50:19.649Z,96392.03
2019-06-27T16:53:03.216Z,96398.73
2019-06-27T16:55:46.745Z,96373.57
2019-06-27T16:58:30.503Z,96399.05
2019-06-27T17:01:14.214Z,96396.18
2019-06-27T17:04:00.245Z,96398.48
2019-06-27T17:06:44.137Z,96396.69
2019-06-27T17:09:27.820Z,96392.06
2019-06-27T17:15:28.295Z,96399.48
2019-06-27T17:18:13.544Z,96394.83
2019-06-27T17:21:16.500Z,96410.11
2019-06-27T17:24:01.811Z,96404.14
2019-06-27T17:26:45.271Z,96404.63
2019-06-27T17:29:29.575Z,96401.57
2019-06-27T17:32:12.969Z,96401.31
2019-06-27T17:34:56.357Z,96403.50
2019-06-27T17:37:43.796Z,96389.91
2019-06-27T17:40:27.625Z,96399.39
2019-06-27T17:43:13.192Z,96408.47
2019-06-27T17:45:57.120Z,96408.17
2019-06-27T17:48:41.220Z,96401.41
2019-06-27T17:51:28.541Z,96378.18
2019-06-27T17:54:13.515Z,96408.89
2019-06-27T17:56:56.827Z,96397.11
2019-06-27T17:59:40.409Z,96380.45
2019-06-27T18:02:24.696Z,96404.30
2019-06-27T18:05:08.201Z,96389.88
2019-06-27T18:07:52.239Z,96404.53
2019-06-27T18:10:36.309Z,96399.94
2019-06-27T18:13:19.942Z,96409.86
2019-06-27T18:16:03.325Z,96410.28
2019-06-27T18:18:46.772Z,96411.24
2019-06-27T18:21:31.469Z,96387.77
2019-06-27T18:24:14.903Z,96393.69
2019-06-27T18:26:58.931Z,96394.80
2019-06-27T18:29:42.471Z,96415.80
2019-06-27T18:32:26.020Z,96414.35
2019-06-27T18:35:15.091Z,96415.20
2019-06-27T18:37:58.593Z,96413.70
2019-06-27T18:40:41.950Z,96425.76
2019-06-27T18:43:25.701Z,96426.17
2019-06-27T18:46:09.527Z,96425.70
2019-06-27T18:48:52.701Z,96423.55
2019-06-27T18:51:36.311Z,96430.20
2019-06-27T18:54:23.625Z,96427.66
2019-06-27T18:57:07.156Z,96429.33
2019-06-27T18:59:53.647Z,96435.59
2019-06-27T19:02:37.913Z,96431.77
2019-06-27T19:05:21.292Z,96418.48
2019-06-27T19:08:06.145Z,96435.61
2019-06-27T19:10:50.490Z,96431.77
2019-06-27T19:13:34.390Z,96442.63
2019-06-27T19:16:17.997Z,96439.64
2019-06-27T19:19:05.152Z,96441.28
2019-06-27T19:22:08.971Z,96439.34
2019-06-27T19:25:11.972Z,96439.73
2019-06-27T19:27:56.005Z,96442.67
2019-06-27T19:30:43.706Z,96450.56
2019-06-27T19:33:28.574Z,96451.32
2019-06-27T19:36:12.684Z,96461.33
2019-06-27T19:39:00.621Z,96456.41
2019-06-27T19:41:45.482Z,96462.13
2019-06-27T19:44:28.891Z,96468.88
2019-06-27T19:47:12.880Z,96473.94
2019-06-27T19:49:56.584Z,96481.19
2019-06-27T19:52:41.221Z,96454.13
2019-06-27T19:55:25.694Z,96481.48
2019-06-27T19:58:09.457Z,96476.47
2019-06-27T20:00:53.911Z,96486.54
2019-06-27T20:03:38.127Z,96495.06
2019-06-27T20:06:22.659Z,96490.70
2019-06-27T20:09:07.461Z,96504.80
2019-06-27T20:11:51.714Z,96483.36
2019-06-27T20:14:35.944Z,96514.16
2019-06-27T20:17:27.543Z,96517.11
2019-06-27T20:20:12.163Z,96519.53
2019-06-27T20:22:56.593Z,96527.94
2019-06-27T20:25:40.699Z,96526.95
2019-06-27T20:28:26.095Z,96528.45
2019-06-27T20:31:11.299Z,96529.48
2019-06-27T20:33:55.741Z,96532.91
2019-06-27T20:36:40.312Z,96519.00
2019-06-27T20:39:23.973Z,96543.94
2019-06-27T20:42:07.889Z,96543.14
2019-06-27T20:44:51.499Z,96553.98
2019-06-27T20:47:35.741Z,96555.55
2019-06-27T20:50:19.564Z,96529.66
2019-06-27T20:53:03.674Z,96531.59
2019-06-27T20:55:47.687Z,96563.51
2019-06-27T20:58:20.099Z,96555.74
2019-06-27T21:01:04.606Z,96557.41
2019-06-27T21:03:49.999Z,96569.34
2019-06-27T21:06:34.294Z,96561.39
2019-06-27T21:09:18.684Z,96565.41
2019-06-27T21:12:02.970Z,96572.44
2019-06-27T21:14:47.550Z,96571.88
2019-06-27T21:17:31.196Z,96569.38
2019-06-27T21:20:15.172Z,96554.36
2019-06-27T21:23:00.057Z,96571.15
2019-06-27T21:25:44.072Z,96574.07
2019-06-27T21:28:27.800Z,96584.17
2019-06-27T21:31:12.296Z,96576.21
2019-06-27T21:33:55.889Z,96581.31
2019-06-27T21:36:41.399Z,96584.76
2019-06-27T21:39:25.534Z,96584.48
2019-06-27T21:42:09.171Z,96592.30
2019-06-27T21:44:53.168Z,96594.69
2019-06-27T21:47:37.672Z,96592.48
2019-06-27T21:50:22.122Z,96581.48
2019-06-27T21:53:06.865Z,96570.05
2019-06-27T21:55:51.293Z,96588.98
2019-06-27T21:58:36.606Z,96573.46
2019-06-27T22:01:22.294Z,96599.34
2019-06-27T22:04:06.692Z,96598.67
2019-06-27T22:06:51.231Z,96596.33
2019-06-27T22:09:37.245Z,96592.81
2019-06-27T22:12:21.582Z,96589.58
2019-06-27T22:15:05.993Z,96584.98
2019-06-27T22:17:49.932Z,96592.66
2019-06-27T22:20:39.453Z,96572.93
2019-06-27T22:23:21.827Z,96605.77
2019-06-27T22:26:06.377Z,96593.42
2019-06-27T22:28:50.896Z,96594.00
2019-06-27T22:31:35.031Z,96592.31
2019-06-27T22:34:19.544Z,96594.09
2019-06-27T22:37:04.447Z,96591.95
2019-06-27T22:40:07.530Z,96590.77
2019-06-27T22:43:10.912Z,96588.18
2019-06-27T22:46:16.301Z,96588.18
2019-06-27T22:48:59.364Z,96586.05
2019-06-27T22:54:56.924Z,96590.27
2019-06-27T22:57:41.446Z,96590.76
2019-06-27T23:00:25.893Z,96583.29
2019-06-27T23:03:09.903Z,96586.25
2019-06-27T23:05:53.689Z,96579.27
2019-06-27T23:08:26.017Z,96585.83
2019-06-27T23:11:17.381Z,96579.17
2019-06-27T23:14:01.461Z,96583.81
2019-06-27T23:16:45.655Z,96583.20
2019-06-27T23:19:31.681Z,96578.27
2019-06-27T23:22:16.105Z,96587.41
2019-06-27T23:25:00.415Z,96583.42
2019-06-27T23:27:46.005Z,96589.48
2019-06-27T23:30:30.476Z,96583.94
2019-06-27T23:33:15.177Z,96583.66
2019-06-27T23:35:59.611Z,96585.38
2019-06-27T23:38:43.359Z,96598.08
2019-06-27T23:41:27.783Z,96591.30
2019-06-27T23:44:12.409Z,96588.97
2019-06-27T23:46:56.609Z,96576.00
2019-06-27T23:49:40.811Z,96582.20
2019-06-27T23:52:25.077Z,96560.25
2019-06-27T23:55:09.326Z,96574.02
2019-06-27T23:57:52.954Z,96585.45
